sensor_id;sensor_type;location;lat;lon;timestamp;pressure;altitude;pressure_sealevel;temperature;humidity
21182;BME280;10749;46.296;7.524;2022-12-24T00:01:14;94975.31;;;10.16;72.01
21182;BME280;10749;46.296;7.524;2022-12-24T00:03:40;94974.97;;;10.19;71.59
21182;BME280;10749;46.296;7.524;2022-12-24T00:06:14;94974.97;;;10.19;71.79
21182;BME280;10749;46.296;7.524;2022-12-24T00:08:40;94979.44;;;10.18;72.02
21182;BME280;10749;46.296;7.524;2022-12-24T00:11:06;94989.69;;;10.22;71.85
21182;BME280;10749;46.296;7.524;2022-12-24T00:13:32;94977.56;;;10.27;72.12
21182;BME280;10749;46.296;7.524;2022-12-24T00:15:57;94975.09;;;10.26;72.32
21182;BME280;10749;46.296;7.524;2022-12-24T00:18:23;94980.03;;;10.29;72.35
21182;BME280;10749;46.296;7.524;2022-12-24T00:20:49;94973.41;;;10.33;71.97
21182;BME280;10749;46.296;7.524;2022-12-24T00:23:15;94974.06;;;10.35;71.62
21182;BME280;10749;46.296;7.524;2022-12-24T00:25:41;94973.72;;;10.38;71.78
21182;BME280;10749;46.296;7.524;2022-12-24T00:28:06;94983.25;;;10.47;71.93
21182;BME280;10749;46.296;7.524;2022-12-24T00:30:32;95001.00;;;10.61;72.21
21182;BME280;10749;46.296;7.524;2022-12-24T00:32:57;95004.66;;;10.60;72.09
21182;BME280;10749;46.296;7.524;2022-12-24T00:35:22;95012.41;;;10.61;72.08
21182;BME280;10749;46.296;7.524;2022-12-24T00:37:48;95014.34;;;10.45;72.25
21182;BME280;10749;46.296;7.524;2022-12-24T00:40:15;95013.22;;;10.39;72.41
21182;BME280;10749;46.296;7.524;2022-12-24T00:42:40;95021.50;;;10.36;72.02
21182;BME280;10749;46.296;7.524;2022-12-24T00:45:06;95014.25;;;10.30;72.44
21182;BME280;10749;46.296;7.524;2022-12-24T00:47:32;94997.25;;;10.25;72.36
21182;BME280;10749;46.296;7.524;2022-12-24T00:49:57;94996.75;;;10.29;72.09
21182;BME280;10749;46.296;7.524;2022-12-24T00:52:22;95007.44;;;10.36;71.97
21182;BME280;10749;46.296;7.524;2022-12-24T00:54:48;95010.69;;;10.46;71.83
21182;BME280;10749;46.296;7.524;2022-12-24T00:57:13;95019.09;;;10.49;71.47
21182;BME280;10749;46.296;7.524;2022-12-24T00:59:38;95004.88;;;10.50;72.04
21182;BME280;10749;46.296;7.524;2022-12-24T01:02:03;95001.34;;;10.58;71.86
21182;BME280;10749;46.296;7.524;2022-12-24T01:04:29;95004.31;;;10.63;71.77
21182;BME280;10749;46.296;7.524;2022-12-24T01:07:13;94999.66;;;10.65;72.10
21182;BME280;10749;46.296;7.524;2022-12-24T01:09:38;95000.63;;;10.72;71.92
21182;BME280;10749;46.296;7.524;2022-12-24T01:12:04;94993.59;;;10.79;71.89
21182;BME280;10749;46.296;7.524;2022-12-24T01:14:29;94981.00;;;10.81;72.19
21182;BME280;10749;46.296;7.524;2022-12-24T01:16:54;94992.88;;;10.85;72.05
21182;BME280;10749;46.296;7.524;2022-12-24T01:19:19;94998.38;;;10.84;72.10
21182;BME280;10749;46.296;7.524;2022-12-24T01:21:45;94999.81;;;10.86;72.25
21182;BME280;10749;46.296;7.524;2022-12-24T01:24:15;95011.34;;;10.93;72.20
21182;BME280;10749;46.296;7.524;2022-12-24T01:26:41;95013.00;;;10.94;72.11
21182;BME280;10749;46.296;7.524;2022-12-24T01:29:06;95007.16;;;10.99;71.89
21182;BME280;10749;46.296;7.524;2022-12-24T01:31:32;95010.28;;;11.02;72.52
21182;BME280;10749;46.296;7.524;2022-12-24T01:33:57;95015.59;;;11.02;72.33
21182;BME280;10749;46.296;7.524;2022-12-24T01:36:22;95011.34;;;10.93;72.33
21182;BME280;10749;46.296;7.524;2022-12-24T01:38:48;94996.47;;;10.92;72.12
21182;BME280;10749;46.296;7.524;2022-12-24T01:41:19;94998.16;;;10.85;72.04
21182;BME280;10749;46.296;7.524;2022-12-24T01:44:27;95008.50;;;10.80;71.86
21182;BME280;10749;46.296;7.524;2022-12-24T01:47:03;95017.44;;;10.79;71.74
21182;BME280;10749;46.296;7.524;2022-12-24T01:49:30;95016.75;;;10.77;71.88
21182;BME280;10749;46.296;7.524;2022-12-24T01:52:00;95026.06;;;10.73;72.13
21182;BME280;10749;46.296;7.524;2022-12-24T01:54:32;95039.97;;;10.75;72.17
21182;BME280;10749;46.296;7.524;2022-12-24T01:57:07;95033.66;;;10.76;72.24
21182;BME280;10749;46.296;7.524;2022-12-24T01:59:35;95025.38;;;10.79;72.27
21182;BME280;10749;46.296;7.524;2022-12-24T02:02:01;95034.31;;;10.78;72.20
21182;BME280;10749;46.296;7.524;2022-12-24T02:04:39;95039.59;;;10.78;71.98
21182;BME280;10749;46.296;7.524;2022-12-24T02:07:06;95039.59;;;10.78;71.73
21182;BME280;10749;46.296;7.524;2022-12-24T02:09:33;95033.66;;;10.76;71.78
21182;BME280;10749;46.296;7.524;2022-12-24T02:12:00;95044.22;;;10.84;72.01
21182;BME280;10749;46.296;7.524;2022-12-24T02:14:27;95049.13;;;10.87;72.13
21182;BME280;10749;46.296;7.524;2022-12-24T02:24:56;95069.50;;;10.64;72.33
21182;BME280;10749;46.296;7.524;2022-12-24T02:30:10;95059.78;;;10.48;72.01
21182;BME280;10749;46.296;7.524;2022-12-24T02:40:49;95046.97;;;10.37;71.69
21182;BME280;10749;46.296;7.524;2022-12-24T02:43:20;95054.50;;;10.48;72.05
21182;BME280;10749;46.296;7.524;2022-12-24T02:45:53;95046.03;;;10.53;71.85
21182;BME280;10749;46.296;7.524;2022-12-24T02:48:19;95045.00;;;10.62;72.17
21182;BME280;10749;46.296;7.524;2022-12-24T02:51:02;95041.00;;;10.66;72.25
21182;BME280;10749;46.296;7.524;2022-12-24T02:53:29;95047.25;;;10.73;72.26
21182;BME280;10749;46.296;7.524;2022-12-24T02:58:55;95035.97;;;10.79;72.14
21182;BME280;10749;46.296;7.524;2022-12-24T03:09:17;95039.66;;;10.70;72.03
21182;BME280;10749;46.296;7.524;2022-12-24T03:11:52;95053.34;;;10.74;71.83
21182;BME280;10749;46.296;7.524;2022-12-24T03:14:20;95046.09;;;10.76;71.83
21182;BME280;10749;46.296;7.524;2022-12-24T03:16:47;95044.88;;;10.78;72.19
21182;BME280;10749;46.296;7.524;2022-12-24T03:19:13;95038.59;;;10.79;72.37
21182;BME280;10749;46.296;7.524;2022-12-24T03:21:40;95029.00;;;10.78;72.17
21182;BME280;10749;46.296;7.524;2022-12-24T03:24:07;95029.66;;;10.80;72.47
21182;BME280;10749;46.296;7.524;2022-12-24T03:26:33;95025.38;;;10.79;72.47
21182;BME280;10749;46.296;7.524;2022-12-24T03:28:59;95020.69;;;10.81;72.65
21182;BME280;10749;46.296;7.524;2022-12-24T03:31:24;95016.91;;;10.84;72.33
21182;BME280;10749;46.296;7.524;2022-12-24T03:33:50;95018.00;;;10.89;72.50
21182;BME280;10749;46.296;7.524;2022-12-24T03:36:16;95020.31;;;10.92;72.43
21182;BME280;10749;46.296;7.524;2022-12-24T03:38:41;95014.66;;;10.95;72.47
21182;BME280;10749;46.296;7.524;2022-12-24T03:41:07;95011.00;;;10.96;72.31
21182;BME280;10749;46.296;7.524;2022-12-24T03:43:32;95012.63;;;10.97;72.46
21182;BME280;10749;46.296;7.524;2022-12-24T03:46:02;95010.66;;;10.99;72.38
21182;BME280;10749;46.296;7.524;2022-12-24T03:48:28;95014.94;;;11.00;72.55
21182;BME280;10749;46.296;7.524;2022-12-24T03:50:53;95009.97;;;10.97;72.56
21182;BME280;10749;46.296;7.524;2022-12-24T03:53:18;95004.97;;;11.02;72.54
21182;BME280;10749;46.296;7.524;2022-12-24T03:55:45;95002.16;;;11.04;72.74
21182;BME280;10749;46.296;7.524;2022-12-24T03:58:11;95009.75;;;11.07;72.25
21182;BME280;10749;46.296;7.524;2022-12-24T04:00:36;95017.53;;;11.08;72.44
21182;BME280;10749;46.296;7.524;2022-12-24T04:03:01;95005.28;;;11.07;72.44
21182;BME280;10749;46.296;7.524;2022-12-24T04:05:27;95008.59;;;11.09;72.42
21182;BME280;10749;46.296;7.524;2022-12-24T04:07:52;95002.28;;;11.10;72.55
21182;BME280;10749;46.296;7.524;2022-12-24T04:10:17;94996.50;;;11.07;72.59
21182;BME280;10749;46.296;7.524;2022-12-24T04:12:43;95003.00;;;11.04;72.34
21182;BME280;10749;46.296;7.524;2022-12-24T04:15:08;95009.28;;;11.03;72.41
21182;BME280;10749;46.296;7.524;2022-12-24T04:17:34;95018.88;;;11.04;72.33
21182;BME280;10749;46.296;7.524;2022-12-24T04:19:59;95017.34;;;11.10;72.52
21182;BME280;10749;46.296;7.524;2022-12-24T04:22:24;95016.63;;;11.16;72.39
21182;BME280;10749;46.296;7.524;2022-12-24T04:24:50;95014.75;;;11.25;72.35
21182;BME280;10749;46.296;7.524;2022-12-24T04:27:16;95016.03;;;11.29;72.38
21182;BME280;10749;46.296;7.524;2022-12-24T04:29:42;95008.53;;;11.32;72.45
21182;BME280;10749;46.296;7.524;2022-12-24T04:32:07;95025.34;;;11.25;72.48
21182;BME280;10749;46.296;7.524;2022-12-24T04:34:34;95011.94;;;11.03;72.73
21182;BME280;10749;46.296;7.524;2022-12-24T04:36:59;94994.81;;;10.91;71.81
21182;BME280;10749;46.296;7.524;2022-12-24T04:39:24;94998.16;;;10.85;71.93
21182;BME280;10749;46.296;7.524;2022-12-24T04:41:50;95008.81;;;10.77;71.60
21182;BME280;10749;46.296;7.524;2022-12-24T04:44:15;95014.63;;;10.73;71.84
21182;BME280;10749;46.296;7.524;2022-12-24T04:46:40;95006.22;;;10.69;72.23
21182;BME280;10749;46.296;7.524;2022-12-24T04:49:07;94995.31;;;10.72;72.40
21182;BME280;10749;46.296;7.524;2022-12-24T04:51:33;94993.28;;;10.74;72.42
21182;BME280;10749;46.296;7.524;2022-12-24T04:53:58;94991.13;;;10.78;72.24
21182;BME280;10749;46.296;7.524;2022-12-24T04:56:26;94994.22;;;10.81;72.42
21182;BME280;10749;46.296;7.524;2022-12-24T04:58:52;95000.03;;;10.85;72.23
21182;BME280;10749;46.296;7.524;2022-12-24T05:01:20;95008.75;;;10.85;71.98
21182;BME280;10749;46.296;7.524;2022-12-24T05:03:46;95006.78;;;10.87;72.24
21182;BME280;10749;46.296;7.524;2022-12-24T05:06:14;94987.25;;;10.88;72.31
21182;BME280;10749;46.296;7.524;2022-12-24T05:08:40;94979.47;;;10.87;72.71
21182;BME280;10749;46.296;7.524;2022-12-24T05:11:06;94970.69;;;10.86;72.58
21182;BME280;10749;46.296;7.524;2022-12-24T05:13:31;94976.28;;;10.91;72.43
21182;BME280;10749;46.296;7.524;2022-12-24T05:15:57;94961.03;;;10.93;72.47
21182;BME280;10749;46.296;7.524;2022-12-24T05:18:22;94961.69;;;10.95;72.49
21182;BME280;10749;46.296;7.524;2022-12-24T05:20:48;94958.06;;;10.96;72.32
21182;BME280;10749;46.296;7.524;2022-12-24T05:23:19;94960.34;;;10.99;72.41
21182;BME280;10749;46.296;7.524;2022-12-24T05:26:03;94956.75;;;10.92;72.51
21182;BME280;10749;46.296;7.524;2022-12-24T05:28:53;94955.09;;;10.91;72.50
21182;BME280;10749;46.296;7.524;2022-12-24T05:31:20;94964.78;;;10.84;72.50
21182;BME280;10749;46.296;7.524;2022-12-24T05:33:46;94957.22;;;10.73;72.30
21182;BME280;10749;46.296;7.524;2022-12-24T05:36:12;94944.06;;;10.65;71.86
21182;BME280;10749;46.296;7.524;2022-12-24T05:38:37;94953.72;;;10.58;71.75
21182;BME280;10749;46.296;7.524;2022-12-24T05:41:03;94946.31;;;10.53;72.05
21182;BME280;10749;46.296;7.524;2022-12-24T05:43:29;94951.72;;;10.60;72.24
21182;BME280;10749;46.296;7.524;2022-12-24T05:45:59;94951.88;;;10.81;72.33
21182;BME280;10749;46.296;7.524;2022-12-24T05:48:24;94959.66;;;10.97;72.58
21182;BME280;10749;46.296;7.524;2022-12-24T05:50:49;94961.72;;;11.10;72.57
21182;BME280;10749;46.296;7.524;2022-12-24T05:53:15;94957.53;;;11.16;72.47
21182;BME280;10749;46.296;7.524;2022-12-24T05:55:40;94957.34;;;11.17;72.27
21182;BME280;10749;46.296;7.524;2022-12-24T05:58:05;94960.91;;;11.09;72.48
21182;BME280;10749;46.296;7.524;2022-12-24T06:00:31;94959.13;;;11.02;71.92
21182;BME280;10749;46.296;7.524;2022-12-24T06:02:56;94948.53;;;10.87;71.75
21182;BME280;10749;46.296;7.524;2022-12-24T06:05:21;94944.66;;;10.75;71.94
21182;BME280;10749;46.296;7.524;2022-12-24T06:07:47;94940.88;;;10.70;71.88
21182;BME280;10749;46.296;7.524;2022-12-24T06:10:12;94944.81;;;10.74;71.96
21182;BME280;10749;46.296;7.524;2022-12-24T06:12:37;94930.53;;;10.83;72.07
21182;BME280;10749;46.296;7.524;2022-12-24T06:15:03;94922.97;;;10.94;72.47
21182;BME280;10749;46.296;7.524;2022-12-24T06:17:28;94935.75;;;10.91;72.25
21182;BME280;10749;46.296;7.524;2022-12-24T06:19:54;94937.47;;;10.84;71.86
21182;BME280;10749;46.296;7.524;2022-12-24T06:22:19;94944.66;;;10.75;71.78
21182;BME280;10749;46.296;7.524;2022-12-24T06:24:44;94951.84;;;10.67;72.38
21182;BME280;10749;46.296;7.524;2022-12-24T06:27:10;94956.38;;;10.58;72.50
21182;BME280;10749;46.296;7.524;2022-12-24T06:29:35;94984.53;;;10.51;72.64
21182;BME280;10749;46.296;7.524;2022-12-24T06:32:00;94983.88;;;10.49;72.74
21182;BME280;10749;46.296;7.524;2022-12-24T06:34:26;94981.22;;;10.49;72.46
21182;BME280;10749;46.296;7.524;2022-12-24T06:36:51;94973.81;;;10.44;72.37
21182;BME280;10749;46.296;7.524;2022-12-24T06:39:16;94994.16;;;10.44;71.93
21182;BME280;10749;46.296;7.524;2022-12-24T06:41:42;94981.94;;;10.43;72.11
21182;BME280;10749;46.296;7.524;2022-12-24T06:44:07;94970.69;;;10.41;72.29
21182;BME280;10749;46.296;7.524;2022-12-24T06:46:33;94957.41;;;10.49;72.34
21182;BME280;10749;46.296;7.524;2022-12-24T06:48:58;94951.25;;;10.56;72.52
21182;BME280;10749;46.296;7.524;2022-12-24T06:51:23;94959.13;;;10.64;72.55
21182;BME280;10749;46.296;7.524;2022-12-24T06:53:49;94967.00;;;10.73;72.54
21182;BME280;10749;46.296;7.524;2022-12-24T06:56:18;94967.28;;;10.78;72.55
21182;BME280;10749;46.296;7.524;2022-12-24T06:58:43;94956.91;;;10.76;72.72
21182;BME280;10749;46.296;7.524;2022-12-24T07:01:11;94974.78;;;10.74;72.64
21182;BME280;10749;46.296;7.524;2022-12-24T07:03:37;94979.69;;;10.77;72.53
21182;BME280;10749;46.296;7.524;2022-12-24T07:06:03;94975.22;;;10.78;72.44
21182;BME280;10749;46.296;7.524;2022-12-24T07:08:29;94971.50;;;10.72;72.38
21182;BME280;10749;46.296;7.524;2022-12-24T07:10:58;94977.59;;;10.73;72.43
21182;BME280;10749;46.296;7.524;2022-12-24T07:13:24;94979.44;;;10.72;72.53
21182;BME280;10749;46.296;7.524;2022-12-24T07:15:59;94992.31;;;10.75;72.40
21182;BME280;10749;46.296;7.524;2022-12-24T07:18:25;94985.88;;;10.70;72.59
21182;BME280;10749;46.296;7.524;2022-12-24T07:20:51;94985.72;;;10.71;72.46
21182;BME280;10749;46.296;7.524;2022-12-24T07:23:16;94972.19;;;10.66;72.55
21182;BME280;10749;46.296;7.524;2022-12-24T07:25:42;94965.25;;;10.65;72.40
21182;BME280;10749;46.296;7.524;2022-12-24T07:28:07;94961.97;;;10.63;72.38
21182;BME280;10749;46.296;7.524;2022-12-24T07:30:34;94963.94;;;10.61;72.65
21182;BME280;10749;46.296;7.524;2022-12-24T07:32:59;94959.69;;;10.60;72.30
21182;BME280;10749;46.296;7.524;2022-12-24T07:35:25;94955.00;;;10.62;72.05
21182;BME280;10749;46.296;7.524;2022-12-24T07:37:50;94959.94;;;10.65;72.26
21182;BME280;10749;46.296;7.524;2022-12-24T07:40:15;94971.34;;;10.65;72.25
21182;BME280;10749;46.296;7.524;2022-12-24T07:42:41;94986.41;;;10.65;72.56
21182;BME280;10749;46.296;7.524;2022-12-24T07:45:06;95004.31;;;10.63;72.54
21182;BME280;10749;46.296;7.524;2022-12-24T07:47:32;95013.91;;;10.64;72.55
21182;BME280;10749;46.296;7.524;2022-12-24T07:49:58;95003.47;;;10.62;72.07
21182;BME280;10749;46.296;7.524;2022-12-24T07:52:23;95009.97;;;10.60;71.85
21182;BME280;10749;46.296;7.524;2022-12-24T07:54:48;95013.59;;;10.59;72.43
21182;BME280;10749;46.296;7.524;2022-12-24T07:57:14;95009.47;;;10.56;72.39
21182;BME280;10749;46.296;7.524;2022-12-24T07:59:39;94994.78;;;10.54;72.41
21182;BME280;10749;46.296;7.524;2022-12-24T08:02:05;95006.66;;;10.58;72.70
21182;BME280;10749;46.296;7.524;2022-12-24T08:04:31;95009.13;;;10.59;72.39
21182;BME280;10749;46.296;7.524;2022-12-24T08:07:00;94998.41;;;10.53;72.14
21182;BME280;10749;46.296;7.524;2022-12-24T08:09:25;94998.41;;;10.53;72.53
21182;BME280;10749;46.296;7.524;2022-12-24T08:11:50;94989.13;;;10.57;72.47
21182;BME280;10749;46.296;7.524;2022-12-24T08:14:16;94987.97;;;10.59;72.34
21182;BME280;10749;46.296;7.524;2022-12-24T08:16:41;94997.72;;;10.59;72.06
21182;BME280;10749;46.296;7.524;2022-12-24T08:19:06;95005.00;;;10.57;72.51
21182;BME280;10749;46.296;7.524;2022-12-24T08:21:31;95006.66;;;10.58;72.47
21182;BME280;10749;46.296;7.524;2022-12-24T08:23:57;95000.69;;;10.56;72.41
21182;BME280;10749;46.296;7.524;2022-12-24T08:26:22;95008.31;;;10.59;72.17
21182;BME280;10749;46.296;7.524;2022-12-24T08:28:47;95003.84;;;10.59;72.23
21182;BME280;10749;46.296;7.524;2022-12-24T08:31:13;95012.56;;;10.68;72.17
21182;BME280;10749;46.296;7.524;2022-12-24T08:33:39;95019.00;;;10.65;72.23
21182;BME280;10749;46.296;7.524;2022-12-24T08:36:05;95023.47;;;10.65;72.30
21182;BME280;10749;46.296;7.524;2022-12-24T08:38:30;95020.81;;;10.65;72.52
21182;BME280;10749;46.296;7.524;2022-12-24T08:40:56;95032.66;;;10.77;72.67
21182;BME280;10749;46.296;7.524;2022-12-24T08:43:21;95030.31;;;10.82;72.86
21182;BME280;10749;46.296;7.524;2022-12-24T08:45:47;95033.25;;;10.87;72.79
21182;BME280;10749;46.296;7.524;2022-12-24T08:48:13;95023.13;;;10.91;73.02
21182;BME280;10749;46.296;7.524;2022-12-24T08:50:39;95035.19;;;10.93;72.72
21182;BME280;10749;46.296;7.524;2022-12-24T08:53:05;95031.72;;;10.93;72.58
21182;BME280;10749;46.296;7.524;2022-12-24T08:55:31;95036.47;;;10.97;72.50
21182;BME280;10749;46.296;7.524;2022-12-24T08:57:56;95044.78;;;10.94;72.46
21182;BME280;10749;46.296;7.524;2022-12-24T09:00:21;95045.13;;;10.91;72.35
21182;BME280;10749;46.296;7.524;2022-12-24T09:02:47;95048.91;;;10.97;72.39
21182;BME280;10749;46.296;7.524;2022-12-24T09:05:12;95055.59;;;11.07;72.63
21182;BME280;10749;46.296;7.524;2022-12-24T09:07:37;95048.94;;;11.11;72.76
21182;BME280;10749;46.296;7.524;2022-12-24T09:10:03;95057.28;;;11.23;72.73
21182;BME280;10749;46.296;7.524;2022-12-24T09:12:29;95053.28;;;11.27;72.81
21182;BME280;10749;46.296;7.524;2022-12-24T09:14:54;95054.41;;;11.33;72.57
21182;BME280;10749;46.296;7.524;2022-12-24T09:17:20;95057.22;;;11.31;72.60
21182;BME280;10749;46.296;7.524;2022-12-24T09:19:45;95065.63;;;11.35;72.72
21182;BME280;10749;46.296;7.524;2022-12-24T09:22:11;95059.81;;;11.39;72.82
21182;BME280;10749;46.296;7.524;2022-12-24T09:24:37;95055.31;;;11.40;72.79
21182;BME280;10749;46.296;7.524;2022-12-24T09:27:02;95054.97;;;11.43;72.55
21182;BME280;10749;46.296;7.524;2022-12-24T09:29:29;95046.13;;;11.50;72.57
21182;BME280;10749;46.296;7.524;2022-12-24T09:31:54;95047.13;;;11.49;72.52
21182;BME280;10749;46.296;7.524;2022-12-24T09:34:20;95061.84;;;11.52;72.37
21182;BME280;10749;46.296;7.524;2022-12-24T09:36:46;95062.88;;;11.51;72.62
21182;BME280;10749;46.296;7.524;2022-12-24T09:39:11;95065.22;;;11.46;72.54
21182;BME280;10749;46.296;7.524;2022-12-24T09:44:28;95068.72;;;11.46;72.32
21182;BME280;10749;46.296;7.524;2022-12-24T09:47:00;95058.44;;;11.43;72.47
21182;BME280;10749;46.296;7.524;2022-12-24T09:49:41;95054.97;;;11.43;72.45
21182;BME280;10749;46.296;7.524;2022-12-24T09:52:11;95056.63;;;11.44;72.58
21182;BME280;10749;46.296;7.524;2022-12-24T09:54:43;95047.84;;;11.43;72.47
21182;BME280;10749;46.296;7.524;2022-12-24T09:57:24;95044.38;;;11.43;72.53
21182;BME280;10749;46.296;7.524;2022-12-24T09:59:51;95037.16;;;11.37;72.36
21182;BME280;10749;46.296;7.524;2022-12-24T10:02:18;95043.06;;;11.39;72.44
21182;BME280;10749;46.296;7.524;2022-12-24T10:04:45;95049.19;;;11.39;72.25
21182;BME280;10749;46.296;7.524;2022-12-24T10:10:31;95047.91;;;11.35;72.51
21182;BME280;10749;46.296;7.524;2022-12-24T10:15:52;95066.00;;;11.32;72.25
21182;BME280;10749;46.296;7.524;2022-12-24T10:18:41;95055.59;;;11.30;72.13
21182;BME280;10749;46.296;7.524;2022-12-24T10:21:14;95053.13;;;11.29;72.19
21182;BME280;10749;46.296;7.524;2022-12-24T10:23:46;95047.44;;;11.32;72.15
21182;BME280;10749;46.296;7.524;2022-12-24T10:29:46;95041.78;;;11.35;72.01
21182;BME280;10749;46.296;7.524;2022-12-24T10:34:35;95041.44;;;11.38;72.28
21182;BME280;10749;46.296;7.524;2022-12-24T10:37:02;95043.72;;;11.41;72.56
21182;BME280;10749;46.296;7.524;2022-12-24T10:39:28;95049.31;;;11.46;72.56
21182;BME280;10749;46.296;7.524;2022-12-24T10:41:56;95048.97;;;11.49;72.46
21182;BME280;10749;46.296;7.524;2022-12-24T10:44:26;95061.69;;;11.53;72.77
21182;BME280;10749;46.296;7.524;2022-12-24T10:46:53;95060.47;;;11.56;72.57
21182;BME280;10749;46.296;7.524;2022-12-24T10:49:42;95072.75;;;11.57;72.45
21182;BME280;10749;46.296;7.524;2022-12-24T10:52:18;95076.38;;;11.56;72.56
21182;BME280;10749;46.296;7.524;2022-12-24T10:57:29;95080.41;;;11.52;72.25
21182;BME280;10749;46.296;7.524;2022-12-24T10:59:55;95083.25;;;11.50;72.29
21182;BME280;10749;46.296;7.524;2022-12-24T11:02:32;95082.06;;;11.53;72.20
21182;BME280;10749;46.296;7.524;2022-12-24T11:05:00;95073.09;;;11.54;72.40
21182;BME280;10749;46.296;7.524;2022-12-24T11:07:27;95078.03;;;11.57;72.50
21182;BME280;10749;46.296;7.524;2022-12-24T11:09:58;95072.38;;;11.60;72.79
21182;BME280;10749;46.296;7.524;2022-12-24T11:12:39;95062.72;;;11.67;72.60
21182;BME280;10749;46.296;7.524;2022-12-24T11:17:38;95073.06;;;11.77;72.82
21182;BME280;10749;46.296;7.524;2022-12-24T11:20:05;95073.72;;;11.79;72.66
21182;BME280;10749;46.296;7.524;2022-12-24T11:22:31;95061.63;;;11.76;72.79
21182;BME280;10749;46.296;7.524;2022-12-24T11:25:03;95062.91;;;11.80;72.86
21182;BME280;10749;46.296;7.524;2022-12-24T11:27:32;95070.69;;;11.82;72.63
21182;BME280;10749;46.296;7.524;2022-12-24T11:35:17;95070.69;;;11.82;72.39
21182;BME280;10749;46.296;7.524;2022-12-24T11:37:43;95072.25;;;11.76;72.55
21182;BME280;10749;46.296;7.524;2022-12-24T11:40:22;95072.53;;;11.81;72.73
21182;BME280;10749;46.296;7.524;2022-12-24T11:42:49;95064.41;;;11.83;72.86
21182;BME280;10749;46.296;7.524;2022-12-24T11:45:29;95057.91;;;11.85;72.86
21182;BME280;10749;46.296;7.524;2022-12-24T11:47:55;95058.19;;;11.90;72.79
21182;BME280;10749;46.296;7.524;2022-12-24T11:50:33;95057.34;;;11.90;72.88
21182;BME280;10749;46.296;7.524;2022-12-24T11:53:10;95049.22;;;11.91;72.96
21182;BME280;10749;46.296;7.524;2022-12-24T11:55:48;95040.72;;;11.96;72.88
21182;BME280;10749;46.296;7.524;2022-12-24T11:58:38;95047.31;;;12.00;72.89
21182;BME280;10749;46.296;7.524;2022-12-24T12:01:24;95036.59;;;12.08;72.87
21182;BME280;10749;46.296;7.524;2022-12-24T12:04:26;95034.47;;;12.18;72.91
21182;BME280;10749;46.296;7.524;2022-12-24T12:09:25;95017.91;;;12.31;72.73
21182;BME280;10749;46.296;7.524;2022-12-24T12:12:14;95021.38;;;12.46;72.81
21182;BME280;10749;46.296;7.524;2022-12-24T12:14:54;95013.72;;;12.58;72.80
21182;BME280;10749;46.296;7.524;2022-12-24T12:17:28;95025.63;;;12.62;72.75
21182;BME280;10749;46.296;7.524;2022-12-24T12:22:27;95017.22;;;12.58;72.58
21182;BME280;10749;46.296;7.524;2022-12-24T12:24:55;95012.91;;;12.57;72.70
21182;BME280;10749;46.296;7.524;2022-12-24T12:27:36;95007.97;;;12.54;72.68
21182;BME280;10749;46.296;7.524;2022-12-24T12:30:12;95002.66;;;12.54;72.39
21182;BME280;10749;46.296;7.524;2022-12-24T12:32:46;94998.75;;;12.50;72.31
21182;BME280;10749;46.296;7.524;2022-12-24T12:37:55;94990.69;;;12.43;72.42
21182;BME280;10749;46.296;7.524;2022-12-24T12:40:31;94996.81;;;12.44;72.40
21182;BME280;10749;46.296;7.524;2022-12-24T12:46:14;94999.75;;;12.49;72.42
21182;BME280;10749;46.296;7.524;2022-12-24T12:49:01;95007.50;;;12.50;72.52
21182;BME280;10749;46.296;7.524;2022-12-24T12:55:13;95010.97;;;12.51;72.39
21182;BME280;10749;46.296;7.524;2022-12-24T12:57:43;95006.31;;;12.53;72.59
21182;BME280;10749;46.296;7.524;2022-12-24T13:00:14;95005.56;;;12.59;72.27
21182;BME280;10749;46.296;7.524;2022-12-24T13:05:59;94992.16;;;12.67;72.21
21182;BME280;10749;46.296;7.524;2022-12-24T13:11:04;94987.19;;;12.79;72.50
21182;BME280;10749;46.296;7.524;2022-12-24T13:19:21;94986.56;;;13.19;72.43
21182;BME280;10749;46.296;7.524;2022-12-24T13:21:48;94987.63;;;13.25;72.49
21182;BME280;10749;46.296;7.524;2022-12-24T13:24:21;94991.16;;;13.32;72.21
21182;BME280;10749;46.296;7.524;2022-12-24T13:27:05;94984.63;;;13.34;72.16
21182;BME280;10749;46.296;7.524;2022-12-24T13:35:24;94994.06;;;13.37;72.00
21182;BME280;10749;46.296;7.524;2022-12-24T13:37:50;94997.09;;;13.34;71.91
21182;BME280;10749;46.296;7.524;2022-12-24T13:50:35;94989.09;;;13.27;71.64
21182;BME280;10749;46.296;7.524;2022-12-24T13:53:00;94992.31;;;13.23;71.62
21182;BME280;10749;46.296;7.524;2022-12-24T13:55:26;94999.66;;;13.21;71.70
21182;BME280;10749;46.296;7.524;2022-12-24T13:57:56;95009.25;;;13.22;71.77
21182;BME280;10749;46.296;7.524;2022-12-24T14:05:47;95010.66;;;13.18;71.84
21182;BME280;10749;46.296;7.524;2022-12-24T14:08:36;95007.81;;;13.19;71.64
21182;BME280;10749;46.296;7.524;2022-12-24T14:11:14;95014.34;;;13.17;71.53
21182;BME280;10749;46.296;7.524;2022-12-24T14:18:45;95018.28;;;13.21;71.70
21182;BME280;10749;46.296;7.524;2022-12-24T14:21:24;95004.09;;;13.14;71.58
21182;BME280;10749;46.296;7.524;2022-12-24T14:23:59;95014.09;;;13.12;71.18
21182;BME280;10749;46.296;7.524;2022-12-24T14:26:44;95015.22;;;13.03;71.09
21182;BME280;10749;46.296;7.524;2022-12-24T14:29:35;95008.19;;;12.95;71.01
21182;BME280;10749;46.296;7.524;2022-12-24T14:32:00;95016.06;;;12.88;71.15
21182;BME280;10749;46.296;7.524;2022-12-24T14:34:29;95018.13;;;12.86;71.14
21182;BME280;10749;46.296;7.524;2022-12-24T14:36:55;95020.13;;;12.84;71.11
21182;BME280;10749;46.296;7.524;2022-12-24T14:42:41;95025.00;;;12.81;71.29
21182;BME280;10749;46.296;7.524;2022-12-24T14:45:06;95021.72;;;12.79;71.25
21182;BME280;10749;46.296;7.524;2022-12-24T14:50:32;95020.63;;;12.73;71.26
21182;BME280;10749;46.296;7.524;2022-12-24T14:55:54;95034.34;;;12.77;71.39
21182;BME280;10749;46.296;7.524;2022-12-24T14:58:29;95028.66;;;12.80;71.39
21182;BME280;10749;46.296;7.524;2022-12-24T15:00:57;95025.81;;;12.81;71.20
21182;BME280;10749;46.296;7.524;2022-12-24T15:03:26;95023.34;;;12.80;71.36